createdAt,value
2022-10-23T00:01:34.559Z,10.21
2022-10-23T00:04:05.816Z,10.04
2022-10-23T00:06:35.179Z,10.27
2022-10-23T00:09:05.020Z,10.22
2022-10-23T00:11:33.310Z,10.35
2022-10-23T00:14:03.775Z,10.26
2022-10-23T00:16:31.712Z,10.24
2022-10-23T00:18:59.207Z,10.40
2022-10-23T00:21:28.152Z,10.48
2022-10-23T00:23:55.681Z,10.55
2022-10-23T00:26:23.223Z,10.72
2022-10-23T00:28:53.574Z,10.57
2022-10-23T00:31:22.195Z,10.83
2022-10-23T00:33:51.054Z,10.74
2022-10-23T00:36:20.537Z,10.73
2022-10-23T00:38:50.607Z,10.89
2022-10-23T00:41:21.844Z,10.83
2022-10-23T00:44:05.401Z,10.53
2022-10-23T00:46:33.540Z,10.37
2022-10-23T00:49:02.158Z,10.32
2022-10-23T00:51:34.693Z,10.22
2022-10-23T00:56:55.972Z,10.30
2022-10-23T00:59:23.697Z,10.04
2022-10-23T01:01:51.476Z,10.09
2022-10-23T01:04:19.832Z,9.91
2022-10-23T01:06:54.283Z,9.95
2022-10-23T01:09:30.018Z,9.89
2022-10-23T01:12:01.770Z,9.88
2022-10-23T01:14:34.187Z,9.74
2022-10-23T01:17:06.539Z,10.09
2022-10-23T01:19:47.523Z,9.97
2022-10-23T01:22:38.618Z,10.04
2022-10-23T01:25:23.843Z,9.78
2022-10-23T01:27:57.225Z,9.91
2022-10-23T01:30:24.771Z,9.96
2022-10-23T01:32:56.050Z,9.85
2022-10-23T01:35:28.699Z,9.86
2022-10-23T01:38:04.366Z,9.81
2022-10-23T01:40:38.379Z,9.78
2022-10-23T01:43:14.036Z,9.75
2022-10-23T01:45:44.349Z,9.70
2022-10-23T01:48:16.607Z,9.74
2022-10-23T01:50:45.964Z,9.91
2022-10-23T01:53:13.723Z,10.18
2022-10-23T01:55:43.672Z,10.16
2022-10-23T01:58:14.432Z,10.12
2022-10-23T02:00:45.179Z,10.14
2022-10-23T02:03:14.996Z,10.01
2022-10-23T02:05:43.759Z,9.92
2022-10-23T02:08:11.826Z,9.97
2022-10-23T02:10:45.558Z,10.05
2022-10-23T02:13:20.171Z,10.05
2022-10-23T02:15:51.248Z,10.03
2022-10-23T02:18:31.636Z,9.85
2022-10-23T02:21:05.080Z,9.74
2022-10-23T02:23:36.771Z,9.76
2022-10-23T02:26:08.827Z,9.65
2022-10-23T02:28:42.329Z,9.73
2022-10-23T02:31:11.998Z,9.79
2022-10-23T02:33:39.750Z,9.76
2022-10-23T02:36:07.883Z,9.99
2022-10-23T02:38:40.389Z,9.94
2022-10-23T02:41:25.754Z,9.90
2022-10-23T02:44:09.353Z,10.00
2022-10-23T02:46:47.488Z,9.95
2022-10-23T02:49:22.626Z,10.03
2022-10-23T02:51:58.960Z,9.99
2022-10-23T02:54:43.447Z,10.09
2022-10-23T02:57:20.497Z,10.08
2022-10-23T02:59:57.322Z,10.20
2022-10-23T03:02:27.596Z,10.25
2022-10-23T03:04:59.019Z,10.39
2022-10-23T03:07:27.024Z,10.26
2022-10-23T03:09:54.478Z,10.41
2022-10-23T03:12:21.943Z,10.31
2022-10-23T03:14:50.756Z,10.29
2022-10-23T03:17:18.218Z,10.25
2022-10-23T03:19:45.676Z,10.36
2022-10-23T03:22:13.138Z,10.46
2022-10-23T03:24:40.594Z,10.30
2022-10-23T03:27:08.064Z,10.31
2022-10-23T03:29:35.577Z,10.10
2022-10-23T03:32:04.665Z,10.29
2022-10-23T03:34:32.142Z,10.24
2022-10-23T03:36:59.996Z,10.26
2022-10-23T03:39:27.706Z,10.16
2022-10-23T03:41:55.183Z,10.14
2022-10-23T03:44:22.653Z,10.18
2022-10-23T03:46:50.119Z,10.36
2022-10-23T03:49:18.930Z,10.37
2022-10-23T03:51:51.902Z,10.14
2022-10-23T03:54:21.041Z,10.18
2022-10-23T03:56:49.830Z,10.16
2022-10-23T03:59:18.992Z,10.02
2022-10-23T04:01:46.903Z,10.00
2022-10-23T04:04:15.443Z,10.04
2022-10-23T04:06:44.244Z,10.09
2022-10-23T04:11:40.432Z,10.04
2022-10-23T04:14:07.907Z,10.14
2022-10-23T04:16:35.376Z,10.13
2022-10-23T04:19:03.203Z,10.13
2022-10-23T04:21:30.687Z,10.10
2022-10-23T04:23:59.491Z,10.13
2022-10-23T04:26:26.996Z,10.20
2022-10-23T04:28:54.447Z,10.27
2022-10-23T04:31:22.267Z,10.09
2022-10-23T04:33:49.703Z,10.11
2022-10-23T04:36:17.168Z,10.16
2022-10-23T04:38:44.652Z,10.14
2022-10-23T04:41:13.442Z,10.18
2022-10-23T04:43:40.921Z,10.25
2022-10-23T04:46:08.702Z,10.33
2022-10-23T04:48:36.403Z,10.25
2022-10-23T04:51:05.853Z,10.23
2022-10-23T04:53:34.012Z,10.34
2022-10-23T04:56:01.736Z,10.32
2022-10-23T04:58:30.600Z,10.31
2022-10-23T05:00:58.511Z,10.24
2022-10-23T05:03:26.773Z,10.14
2022-10-23T05:05:56.048Z,10.22
2022-10-23T05:08:23.990Z,10.21
2022-10-23T05:10:51.783Z,10.23
2022-10-23T05:13:20.519Z,10.14
2022-10-23T05:15:50.375Z,10.09
2022-10-23T05:18:21.429Z,10.25
2022-10-23T05:20:51.262Z,10.15
2022-10-23T05:23:21.862Z,10.16
2022-10-23T05:25:49.306Z,10.23
2022-10-23T05:28:16.805Z,10.37
2022-10-23T05:30:44.730Z,10.28
2022-10-23T05:33:13.547Z,10.32
2022-10-23T05:35:43.288Z,10.23
2022-10-23T05:38:11.469Z,10.29
2022-10-23T05:43:11.471Z,10.34
2022-10-23T05:45:38.934Z,10.32
2022-10-23T05:48:17.029Z,10.28
2022-10-23T05:50:51.862Z,10.39
2022-10-23T05:53:19.323Z,10.43
2022-10-23T05:55:46.787Z,10.53
2022-10-23T05:58:14.349Z,10.48
2022-10-23T06:00:41.803Z,10.52
2022-10-23T06:03:09.242Z,10.49
2022-10-23T06:05:36.829Z,10.66
2022-10-23T06:08:05.998Z,10.59
2022-10-23T06:10:33.455Z,10.65
2022-10-23T06:13:00.915Z,10.68
2022-10-23T06:15:28.363Z,10.73
2022-10-23T06:17:55.801Z,10.72
2022-10-23T06:20:26.598Z,10.79
2022-10-23T06:22:56.183Z,10.85
2022-10-23T06:25:24.975Z,10.85
2022-10-23T06:27:52.447Z,10.82
2022-10-23T06:30:19.918Z,10.86
2022-10-23T06:32:47.377Z,10.86
2022-10-23T06:35:14.963Z,10.83
2022-10-23T06:37:42.470Z,10.95
2022-10-23T06:40:10.594Z,11.00
2022-10-23T06:42:39.395Z,11.01
2022-10-23T06:45:08.145Z,11.10
2022-10-23T06:47:35.641Z,11.16
2022-10-23T06:50:03.113Z,11.19
2022-10-23T06:52:46.601Z,11.21
2022-10-23T06:55:15.514Z,11.28
2022-10-23T06:57:45.149Z,11.31
2022-10-23T07:00:14.112Z,11.40
2022-10-23T07:02:41.787Z,11.53
2022-10-23T07:05:14.064Z,11.59
2022-10-23T07:07:41.608Z,11.76
2022-10-23T07:10:09.729Z,11.86
2022-10-23T07:12:37.223Z,11.89
2022-10-23T07:15:07.297Z,12.02
2022-10-23T07:17:34.794Z,12.15
2022-10-23T07:20:02.274Z,12.21
2022-10-23T07:22:29.743Z,12.20
2022-10-23T07:24:57.322Z,12.40
2022-10-23T07:27:25.259Z,12.48
2022-10-23T07:29:56.317Z,12.54
2022-10-23T07:32:28.040Z,12.65
2022-10-23T07:34:55.759Z,12.78
2022-10-23T07:37:23.235Z,12.91
2022-10-23T07:39:50.678Z,12.88
2022-10-23T07:42:18.156Z,13.01
2022-10-23T07:44:45.594Z,13.13
2022-10-23T07:47:13.047Z,13.18
2022-10-23T07:49:42.422Z,13.19
2022-10-23T07:52:09.889Z,13.33
2022-10-23T07:54:37.342Z,13.37
2022-10-23T07:57:04.780Z,13.50
2022-10-23T07:59:37.133Z,13.54
2022-10-23T08:02:05.747Z,13.57
2022-10-23T08:04:33.203Z,13.50
2022-10-23T08:07:02.053Z,13.65
2022-10-23T08:09:29.614Z,13.74
2022-10-23T08:11:57.053Z,13.89
2022-10-23T08:14:24.983Z,14.10
2022-10-23T08:16:52.511Z,14.12
2022-10-23T08:19:20.011Z,14.22
2022-10-23T08:21:47.479Z,14.23
2022-10-23T08:24:16.399Z,14.18
2022-10-23T08:26:43.860Z,14.27
2022-10-23T08:29:11.348Z,14.38
2022-10-23T08:31:38.867Z,14.41
2022-10-23T08:34:06.829Z,14.21
2022-10-23T08:36:36.319Z,14.35
2022-10-23T08:39:03.779Z,14.45
2022-10-23T08:41:35.145Z,14.58
2022-10-23T08:44:13.662Z,14.58
2022-10-23T08:46:45.537Z,14.71
2022-10-23T08:49:25.811Z,14.85
2022-10-23T08:51:56.703Z,14.95
2022-10-23T08:54:29.067Z,15.00
2022-10-23T08:57:03.635Z,15.14
2022-10-23T08:59:37.955Z,15.32
2022-10-23T09:02:16.205Z,15.45
2022-10-23T09:04:47.601Z,15.50
2022-10-23T09:07:26.439Z,15.58
2022-10-23T09:10:04.902Z,15.66
2022-10-23T09:12:34.010Z,15.67
2022-10-23T09:15:08.046Z,15.91
2022-10-23T09:17:37.911Z,16.12
2022-10-23T09:20:14.799Z,16.17
2022-10-23T09:22:43.988Z,16.39
2022-10-23T09:25:12.764Z,16.47
2022-10-23T09:27:48.703Z,16.47
2022-10-23T09:30:30.431Z,16.48
2022-10-23T09:32:58.022Z,16.64
2022-10-23T09:35:28.418Z,16.72
2022-10-23T09:37:57.003Z,16.79
2022-10-23T09:40:33.296Z,16.75
2022-10-23T09:43:04.656Z,16.90
2022-10-23T09:45:34.137Z,16.96
2022-10-23T09:48:13.243Z,16.95
2022-10-23T09:50:49.187Z,16.98
2022-10-23T09:53:19.996Z,16.92
2022-10-23T09:55:53.496Z,16.73
2022-10-23T09:58:32.906Z,16.87
2022-10-23T10:01:00.476Z,17.14
2022-10-23T10:03:28.024Z,17.21
2022-10-23T10:05:58.397Z,17.29
2022-10-23T10:08:33.177Z,17.29
2022-10-23T10:11:04.087Z,17.07
2022-10-23T10:13:53.689Z,17.02
2022-10-23T10:16:28.337Z,16.76
2022-10-23T10:19:04.610Z,16.65
2022-10-23T10:21:40.649Z,16.77
2022-10-23T10:24:17.170Z,16.98
2022-10-23T10:26:53.154Z,16.99
2022-10-23T10:29:38.391Z,16.84
2022-10-23T10:32:21.394Z,16.97
2022-10-23T10:34:56.152Z,16.97
2022-10-23T10:37:35.855Z,17.17
2022-10-23T10:40:14.129Z,17.34
2022-10-23T10:42:55.529Z,17.34
2022-10-23T10:45:33.960Z,17.21
2022-10-23T10:48:25.920Z,17.01
2022-10-23T10:50:59.628Z,17.17
2022-10-23T10:53:34.967Z,17.20
2022-10-23T10:56:05.386Z,17.38
2022-10-23T10:58:39.541Z,17.33
2022-10-23T11:02:15.537Z,17.35
2022-10-23T11:04:48.879Z,17.33
2022-10-23T11:07:23.230Z,17.17
2022-10-23T11:09:51.107Z,17.40
2022-10-23T11:12:21.510Z,17.35
2022-10-23T11:14:50.879Z,17.36
2022-10-23T11:17:25.994Z,17.36
2022-10-23T11:20:02.057Z,17.25
2022-10-23T11:22:36.509Z,17.30
2022-10-23T11:25:34.359Z,17.26
2022-10-23T11:28:29.284Z,17.30
2022-10-23T11:31:07.051Z,17.42
2022-10-23T11:34:04.410Z,17.35
2022-10-23T11:36:43.891Z,17.18
2022-10-23T11:39:25.646Z,17.20
2022-10-23T11:41:56.687Z,17.04
2022-10-23T11:44:42.819Z,17.08
2022-10-23T11:47:35.030Z,17.14
2022-10-23T11:50:24.360Z,17.16
2022-10-23T11:53:24.026Z,17.23
2022-10-23T11:56:00.528Z,16.97
2022-10-23T11:58:32.896Z,16.80
2022-10-23T12:01:06.654Z,16.61
2022-10-23T12:03:42.605Z,16.54
2022-10-23T12:06:24.303Z,16.46
2022-10-23T12:08:55.495Z,16.35
2022-10-23T12:11:42.471Z,16.27
2022-10-23T12:14:32.560Z,16.31
2022-10-23T12:17:01.164Z,16.27
2022-10-23T12:19:49.462Z,16.23
2022-10-23T12:22:20.035Z,16.20
2022-10-23T12:25:01.468Z,16.31
2022-10-23T12:27:39.053Z,16.36
2022-10-23T12:30:20.883Z,16.43
2022-10-23T12:33:19.216Z,16.45
2022-10-23T12:36:08.328Z,16.46
2022-10-23T12:38:45.571Z,16.37
2022-10-23T12:41:16.305Z,16.58
2022-10-23T12:43:45.236Z,16.50
2022-10-23T12:46:33.292Z,16.51
2022-10-23T12:49:03.823Z,16.49
2022-10-23T12:51:33.172Z,16.52
2022-10-23T12:54:03.519Z,16.58
2022-10-23T12:56:37.155Z,16.67
2022-10-23T12:59:09.819Z,16.72
2022-10-23T13:01:40.427Z,16.74
2022-10-23T13:04:22.832Z,16.66
2022-10-23T13:06:51.051Z,16.62
2022-10-23T13:09:25.011Z,16.56
2022-10-23T13:11:53.424Z,16.64
2022-10-23T13:14:38.259Z,16.56
2022-10-23T13:17:09.841Z,16.70
2022-10-23T13:19:38.122Z,16.66
2022-10-23T13:22:21.707Z,16.66
2022-10-23T13:24:50.594Z,16.61
2022-10-23T13:27:33.829Z,16.57
2022-10-23T13:30:01.562Z,16.59
2022-10-23T13:32:31.246Z,16.57
2022-10-23T13:35:16.990Z,16.55
2022-10-23T13:37:48.257Z,16.60
2022-10-23T13:40:24.902Z,16.66
2022-10-23T13:42:53.538Z,16.67
2022-10-23T13:45:23.465Z,16.78
2022-10-23T13:47:51.417Z,16.72
2022-10-23T13:50:19.415Z,16.70
2022-10-23T13:52:46.911Z,16.67
2022-10-23T13:55:21.293Z,16.64
2022-10-23T13:57:50.186Z,16.64
2022-10-23T14:00:18.690Z,16.64
2022-10-23T14:02:46.628Z,16.59
2022-10-23T14:05:17.830Z,16.59
2022-10-23T14:07:45.519Z,16.46
2022-10-23T14:10:13.282Z,16.36
2022-10-23T14:12:42.037Z,16.38
2022-10-23T14:15:12.471Z,16.23
2022-10-23T14:17:40.005Z,16.15
2022-10-23T14:20:08.781Z,16.21
2022-10-23T14:22:36.306Z,16.18
2022-10-23T14:25:03.849Z,16.04
2022-10-23T14:27:31.398Z,16.12
2022-10-23T14:29:59.280Z,16.08
2022-10-23T14:32:28.390Z,16.08
2022-10-23T14:34:55.977Z,16.05
2022-10-23T14:37:23.544Z,15.96
2022-10-23T14:39:51.008Z,15.97
2022-10-23T14:42:20.991Z,15.94
2022-10-23T14:44:49.852Z,15.90
2022-10-23T14:47:18.859Z,15.83
2022-10-23T14:49:50.298Z,15.79
2022-10-23T14:52:17.871Z,15.81
2022-10-23T14:54:45.315Z,15.69
2022-10-23T14:57:16.177Z,15.67
2022-10-23T14:59:43.663Z,15.67
2022-10-23T15:02:12.472Z,15.68
2022-10-23T15:04:40.408Z,15.63
2022-10-23T15:10:49.739Z,15.58
2022-10-23T15:13:17.315Z,15.48
2022-10-23T15:15:45.112Z,15.46
2022-10-23T15:18:12.587Z,15.46
2022-10-23T15:20:40.027Z,15.49
2022-10-23T15:23:07.482Z,15.31
2022-10-23T15:25:34.980Z,15.34
2022-10-23T15:28:03.806Z,15.32
2022-10-23T15:30:31.244Z,15.36
2022-10-23T15:32:58.671Z,15.29
2022-10-23T15:35:26.113Z,15.23
2022-10-23T15:37:53.565Z,15.19
2022-10-23T15:40:21.043Z,15.20
2022-10-23T15:42:50.533Z,15.14
2022-10-23T15:45:19.319Z,15.20
2022-10-23T15:47:46.781Z,15.23
2022-10-23T15:50:14.226Z,15.18
2022-10-23T15:52:42.082Z,15.17
2022-10-23T15:55:11.591Z,15.19
2022-10-23T15:57:39.090Z,15.16
2022-10-23T16:00:08.869Z,15.09
2022-10-23T16:02:37.957Z,15.06
2022-10-23T16:05:06.525Z,15.11
2022-10-23T16:07:33.977Z,15.13
2022-10-23T16:10:01.599Z,15.03
2022-10-23T16:12:29.069Z,15.16
2022-10-23T16:14:56.514Z,15.06
2022-10-23T16:17:24.163Z,15.14
2022-10-23T16:19:52.950Z,15.05
2022-10-23T16:22:20.435Z,15.11
2022-10-23T16:24:47.911Z,15.08
2022-10-23T16:27:15.352Z,15.08
2022-10-23T16:29:42.947Z,15.05
2022-10-23T16:32:10.442Z,15.03
2022-10-23T16:34:37.902Z,15.03
2022-10-23T16:37:06.703Z,14.99
2022-10-23T16:39:36.003Z,15.00
2022-10-23T16:42:03.769Z,15.04
2022-10-23T16:44:31.315Z,14.96
2022-10-23T16:46:58.808Z,14.97
2022-10-23T16:49:26.319Z,14.94
2022-10-23T16:51:53.770Z,14.88
2022-10-23T16:54:22.882Z,14.97
2022-10-23T16:56:51.268Z,14.94
2022-10-23T16:59:18.718Z,15.03
2022-10-23T17:01:46.387Z,15.05
2022-10-23T17:04:13.944Z,15.05
2022-10-23T17:06:41.469Z,15.00
2022-10-23T17:09:09.123Z,15.00
2022-10-23T17:11:39.970Z,14.99
2022-10-23T17:14:09.393Z,15.00
2022-10-23T17:16:39.920Z,14.86
2022-10-23T17:19:20.617Z,14.92
2022-10-23T17:21:55.434Z,14.91
2022-10-23T17:24:23.032Z,14.79
2022-10-23T17:26:52.035Z,14.84
2022-10-23T17:29:19.563Z,14.82
2022-10-23T17:31:49.020Z,14.85
2022-10-23T17:34:19.381Z,14.76
2022-10-23T17:36:49.928Z,14.87
2022-10-23T17:39:19.807Z,14.83
2022-10-23T17:41:47.743Z,14.76
2022-10-23T17:44:16.738Z,14.80
2022-10-23T17:46:44.492Z,14.92
2022-10-23T17:49:13.222Z,14.81
2022-10-23T17:51:40.903Z,14.86
2022-10-23T17:54:11.447Z,14.76
2022-10-23T17:56:40.660Z,14.74
2022-10-23T17:59:10.911Z,14.75
2022-10-23T18:01:40.386Z,14.80
2022-10-23T18:04:09.098Z,14.77
2022-10-23T18:06:41.272Z,14.64
2022-10-23T18:09:08.913Z,14.68
2022-10-23T18:11:42.437Z,14.72
2022-10-23T18:14:12.257Z,14.75
2022-10-23T18:16:41.717Z,14.67
2022-10-23T18:19:10.126Z,14.64
2022-10-23T18:21:37.998Z,14.61
2022-10-23T18:24:06.011Z,14.67
2022-10-23T18:26:37.516Z,14.63
2022-10-23T18:29:07.690Z,14.60
2022-10-23T18:31:37.137Z,14.54
2022-10-23T18:34:08.385Z,14.50
2022-10-23T18:36:38.074Z,14.52
2022-10-23T18:39:07.853Z,14.53
2022-10-23T18:41:37.710Z,14.50
2022-10-23T18:44:06.090Z,14.57
2022-10-23T18:46:33.732Z,14.53
2022-10-23T18:49:01.211Z,14.66
2022-10-23T18:51:32.798Z,14.62
2022-10-23T18:54:01.771Z,14.73
2022-10-23T18:56:29.922Z,14.70
2022-10-23T18:58:59.158Z,14.75
2022-10-23T19:01:27.990Z,14.77
2022-10-23T19:06:32.045Z,14.60
2022-10-23T19:08:59.780Z,14.66
2022-10-23T19:11:29.087Z,14.62
2022-10-23T19:13:56.878Z,14.68
2022-10-23T19:16:28.452Z,14.64
2022-10-23T19:18:59.761Z,14.54
2022-10-23T19:21:31.614Z,14.57
2022-10-23T19:24:02.702Z,14.45
2022-10-23T19:26:31.107Z,14.45
2022-10-23T19:28:58.895Z,14.55
2022-10-23T19:31:28.746Z,14.64
2022-10-23T19:33:56.202Z,14.70
2022-10-23T19:36:23.838Z,14.68
2022-10-23T19:38:51.295Z,14.72
2022-10-23T19:41:20.410Z,14.71
2022-10-23T19:43:47.843Z,14.72
2022-10-23T19:46:16.153Z,14.67
2022-10-23T19:48:44.872Z,14.81
2022-10-23T19:51:13.367Z,14.76
2022-10-23T19:53:42.580Z,14.86
2022-10-23T19:56:12.159Z,14.87
2022-10-23T19:58:41.380Z,14.76
2022-10-23T20:01:11.647Z,14.91
2022-10-23T20:03:39.795Z,14.80
2022-10-23T20:06:10.029Z,14.94
2022-10-23T20:08:38.264Z,14.89
2022-10-23T20:11:06.533Z,14.95
2022-10-23T20:13:34.084Z,14.88
2022-10-23T20:16:03.292Z,14.93
2022-10-23T20:18:30.739Z,14.96
2022-10-23T20:20:58.252Z,15.02
2022-10-23T20:23:25.716Z,15.03
2022-10-23T20:25:53.215Z,15.06
2022-10-23T20:28:21.670Z,15.06
2022-10-23T20:30:49.098Z,15.01
2022-10-23T20:33:17.871Z,15.05
2022-10-23T20:35:45.417Z,15.08
2022-10-23T20:38:12.932Z,15.06
2022-10-23T20:40:40.391Z,15.16
2022-10-23T20:43:07.835Z,15.09
2022-10-23T21:00:12.641Z,15.21
2022-10-23T21:02:40.194Z,15.22
2022-10-23T21:05:08.501Z,15.30
2022-10-23T21:07:35.957Z,15.25
2022-10-23T21:10:04.261Z,15.28
2022-10-23T21:12:32.207Z,15.45
2022-10-23T21:14:59.671Z,15.40
2022-10-23T21:17:29.278Z,15.39
2022-10-23T21:19:56.757Z,15.42
2022-10-23T21:22:24.268Z,15.36
2022-10-23T21:24:51.702Z,15.41
2022-10-23T21:27:19.175Z,15.46
2022-10-23T21:29:46.669Z,15.38
2022-10-23T21:32:14.156Z,15.37
2022-10-23T21:34:43.078Z,15.43
2022-10-23T21:37:13.347Z,15.30
2022-10-23T21:39:42.487Z,15.42
2022-10-23T21:42:10.233Z,15.37
2022-10-23T21:44:38.158Z,15.13
2022-10-23T21:47:06.247Z,14.91
2022-10-23T21:49:33.734Z,14.84
2022-10-23T21:52:02.522Z,14.80
2022-10-23T21:54:30.108Z,14.79
2022-10-23T21:56:57.556Z,14.76
2022-10-23T21:59:30.090Z,14.63
2022-10-23T22:01:59.237Z,14.87
2022-10-23T22:04:26.923Z,14.77
2022-10-23T22:06:54.852Z,14.82
2022-10-23T22:09:24.492Z,14.94
2022-10-23T22:11:53.181Z,14.85
2022-10-23T22:14:20.958Z,14.85
2022-10-23T22:16:48.479Z,14.92
2022-10-23T22:19:17.944Z,14.82
2022-10-23T22:21:45.919Z,14.78
2022-10-23T22:24:13.415Z,14.79
2022-10-23T22:26:44.966Z,14.76
2022-10-23T22:29:14.127Z,14.85
2022-10-23T22:31:45.502Z,14.94
2022-10-23T22:34:40.797Z,14.84
2022-10-23T22:37:07.574Z,14.80
2022-10-23T22:39:35.067Z,14.79
2022-10-23T22:42:03.928Z,14.89
2022-10-23T22:44:31.405Z,14.73
2022-10-23T22:46:58.849Z,14.84
2022-10-23T22:49:26.474Z,14.82
2022-10-23T22:51:53.971Z,14.74
2022-10-23T22:54:21.421Z,14.75
2022-10-23T22:56:48.858Z,14.77
2022-10-23T22:59:17.670Z,14.77
2022-10-23T23:01:47.389Z,14.70
2022-10-23T23:04:36.686Z,14.72
2022-10-23T23:07:05.180Z,14.68
2022-10-23T23:09:32.658Z,14.65
2022-10-23T23:12:00.097Z,14.75
2022-10-23T23:14:28.864Z,14.69
2022-10-23T23:16:59.687Z,14.70
2022-10-23T23:19:28.409Z,14.67
2022-10-23T23:21:56.583Z,14.64
2022-10-23T23:24:24.231Z,14.58
2022-10-23T23:26:51.798Z,14.57
2022-10-23T23:29:19.988Z,14.57
2022-10-23T23:31:48.764Z,14.54
2022-10-23T23:34:16.295Z,14.46
2022-10-23T23:36:43.734Z,14.42
2022-10-23T23:39:11.722Z,14.38
2022-10-23T23:41:39.192Z,14.38
2022-10-23T23:44:08.276Z,14.26
2022-10-23T23:46:35.810Z,14.25
2022-10-23T23:49:04.606Z,14.18
2022-10-23T23:51:32.053Z,14.23
2022-10-23T23:53:59.501Z,14.19
2022-10-23T23:56:27.998Z,14.23
2022-10-23T23:58:55.534Z,14.18
